Jolyn — PJWG — position and weather

sailwx.info

Track history (hours):
 
Tides and Currents Weather Stations Pressure Air Temp Water Temp Dewpoint Dewpoint Depression Visibility Wind Speed Wind Dir Waves Ship Positions

Jolyn

Last reported at 2015-Mar-24 18:30 UTC. Time now 2015-Mar-29 23:48 UTC.
Position N 55°41' E 015°36'.

Length 89 m; draft 5.1 m.

Type: Cargo ship. MMSI: 306813000.

Date/timePositionNaut miles runAvg speedWind from/ knotsBaromVisibWave heightAir tempDewpointWater temp
2015-Mar-24 18:30N 55°41' E 015°36'1010.4
2015-Mar-24 17:32N 55°37' E 015°20'1111.1
2015-Mar-24 16:33N 55°31' E 015°04'1110.9
2015-Mar-24 15:33N 55°26' E 014°47'1110.8
2015-Mar-24 14:33N 55°18' E 014°33'1110.6
2015-Mar-24 13:33N 55°11' E 014°21'1510.9
2015-Mar-24 12:13N 55°10' E 013°55'711.0
2015-Mar-24 11:33N 55°11' E 013°42'1111.0
2015-Mar-24 10:32N 55°12' E 013°23'1010.7
2015-Mar-24 09:33N 55°13' E 013°05'1110.6
2015-Mar-24 08:33N 55°16' E 012°47'9 8.7
2015-Mar-24 07:33N 55°23' E 012°39'1111.1
2015-Mar-24 06:33N 55°34' E 012°42'1211.6
2015-Mar-24 05:33N 55°46' E 012°41'1010.4
2015-Mar-24 04:33N 55°56' E 012°38'1010.4
2015-Mar-24 03:33N 56°06' E 012°33'1210.8
2015-Mar-24 02:28N 56°13' E 012°16'1910.0
2015-Mar-24 00:32N 56°30' E 011°59'1010.4
2015-Mar-23 23:33N 56°40' E 011°55'1110.6
2015-Mar-23 22:33N 56°50' E 011°49'1010.4
2015-Mar-23 21:33N 56°60' E 011°43'1010.5
2015-Mar-23 20:33N 57°10' E 011°36'1010.6
2015-Mar-23 19:33N 57°19' E 011°30'1010.3
2015-Mar-23 18:33N 57°29' E 011°21'1010.5
2015-Mar-23 17:33N 57°36' E 011°07'1110.5
2015-Mar-23 16:33N 57°43' E 010°53'8911.1
2015-Mar-23 08:32N 57°19' E 008°14'1111.2
2015-Mar-23 07:31N 57°15' E 007°55'1110.9
2015-Mar-23 06:33N 57°11' E 007°36'1110.8
2015-Mar-23 05:31N 57°07' E 007°17'  
2015-Mar-14 21:26N 55°45' W 001°40'6 4.8
2015-Mar-14 20:08N 55°40' W 001°31'3 5.4
2015-Mar-14 19:32N 55°37' W 001°29'  
Track history (hours):
 
Tides and Currents Weather Stations Pressure Air Temp Water Temp Dewpoint Dewpoint Depression Visibility Wind Speed Wind Dir Waves Ship Positions

Jolyn

Last reported at 2015-Mar-24 18:30 UTC. Time now 2015-Mar-29 23:48 UTC.
Position N 55°41' E 015°36'.

Length 89 m; draft 5.1 m.

Type: Cargo ship. MMSI: 306813000.

Date/timePositionNaut miles runAvg speedWind from/ knotsBaromVisibWave heightAir tempDewpointWater temp
2015-Mar-24 18:30N 55°41' E 015°36'1010.4
2015-Mar-24 17:32N 55°37' E 015°20'1111.1
2015-Mar-24 16:33N 55°31' E 015°04'1110.9
2015-Mar-24 15:33N 55°26' E 014°47'1110.8
2015-Mar-24 14:33N 55°18' E 014°33'1110.6
2015-Mar-24 13:33N 55°11' E 014°21'1510.9
2015-Mar-24 12:13N 55°10' E 013°55'711.0
2015-Mar-24 11:33N 55°11' E 013°42'1111.0
2015-Mar-24 10:32N 55°12' E 013°23'1010.7
2015-Mar-24 09:33N 55°13' E 013°05'1110.6
2015-Mar-24 08:33N 55°16' E 012°47'9 8.7
2015-Mar-24 07:33N 55°23' E 012°39'1111.1
2015-Mar-24 06:33N 55°34' E 012°42'1211.6
2015-Mar-24 05:33N 55°46' E 012°41'1010.4
2015-Mar-24 04:33N 55°56' E 012°38'1010.4
2015-Mar-24 03:33N 56°06' E 012°33'1210.8
2015-Mar-24 02:28N 56°13' E 012°16'1910.0
2015-Mar-24 00:32N 56°30' E 011°59'1010.4
2015-Mar-23 23:33N 56°40' E 011°55'1110.6
2015-Mar-23 22:33N 56°50' E 011°49'1010.4
2015-Mar-23 21:33N 56°60' E 011°43'1010.5
2015-Mar-23 20:33N 57°10' E 011°36'1010.6
2015-Mar-23 19:33N 57°19' E 011°30'1010.3
2015-Mar-23 18:33N 57°29' E 011°21'1010.5
2015-Mar-23 17:33N 57°36' E 011°07'1110.5
2015-Mar-23 16:33N 57°43' E 010°53'8911.1
2015-Mar-23 08:32N 57°19' E 008°14'1111.2
2015-Mar-23 07:31N 57°15' E 007°55'1110.9
2015-Mar-23 06:33N 57°11' E 007°36'1110.8
2015-Mar-23 05:31N 57°07' E 007°17'  
2015-Mar-14 21:26N 55°45' W 001°40'6 4.8
2015-Mar-14 20:08N 55°40' W 001°31'3 5.4
2015-Mar-14 19:32N 55°37' W 001°29'  

Dump ship's entire track history